createdAt,value
2019-04-30T00:01:02.212Z,63.10
2019-04-30T00:03:50.558Z,63.20
2019-04-30T00:06:22.434Z,63.20
2019-04-30T00:08:52.577Z,63.20
2019-04-30T00:11:21.238Z,63.00
2019-04-30T00:13:50.156Z,64.10
2019-04-30T00:16:18.962Z,64.60
2019-04-30T00:18:58.261Z,63.90
2019-04-30T00:21:18.821Z,63.50
2019-04-30T00:23:47.569Z,63.10
2019-04-30T00:26:17.282Z,63.10
2019-04-30T00:28:47.629Z,63.60
2019-04-30T00:31:23.646Z,65.40
2019-04-30T00:33:52.757Z,63.60
2019-04-30T00:36:22.416Z,63.40
2019-04-30T00:38:51.241Z,63.90
2019-04-30T00:41:20.557Z,63.60
2019-04-30T00:43:50.798Z,64.60
2019-04-30T00:46:25.511Z,64.00
2019-04-30T00:48:50.950Z,64.50
2019-04-30T00:51:21.367Z,63.40
2019-04-30T00:53:51.393Z,64.70
2019-04-30T00:56:24.798Z,63.50
2019-04-30T00:58:50.450Z,63.80
2019-04-30T01:01:43.392Z,64.50
2019-04-30T01:04:09.059Z,64.10
2019-04-30T01:06:38.155Z,63.70
2019-04-30T01:09:08.633Z,64.40
2019-04-30T01:11:39.751Z,64.00
2019-04-30T01:14:09.757Z,63.90
2019-04-30T01:16:39.468Z,65.20
2019-04-30T01:19:10.061Z,65.20
2019-04-30T01:21:46.537Z,65.30
2019-04-30T01:24:11.967Z,64.40
2019-04-30T01:26:40.700Z,64.50
2019-04-30T01:29:10.258Z,64.50
2019-04-30T01:31:40.773Z,64.00
2019-04-30T01:34:13.876Z,65.00
2019-04-30T01:36:43.532Z,65.20
2019-04-30T01:39:10.756Z,64.60
2019-04-30T01:41:42.973Z,66.00
2019-04-30T01:44:12.151Z,64.80
2019-04-30T01:46:54.329Z,64.40
2019-04-30T01:49:27.194Z,66.00
2019-04-30T01:51:57.440Z,64.50
2019-04-30T01:54:26.935Z,64.90
2019-04-30T01:56:57.179Z,64.40
2019-04-30T01:59:29.102Z,64.30
2019-04-30T02:02:08.500Z,65.50
2019-04-30T02:04:39.304Z,64.60
2019-04-30T02:07:21.624Z,64.50
2019-04-30T02:09:49.859Z,64.80
2019-04-30T02:12:21.850Z,64.60
2019-04-30T02:14:56.769Z,64.40
2019-04-30T02:17:25.436Z,65.90
2019-04-30T02:19:56.782Z,65.10
2019-04-30T02:22:24.457Z,64.60
2019-04-30T02:24:55.336Z,65.50
2019-04-30T02:27:23.956Z,65.40
2019-04-30T02:29:55.648Z,64.90
2019-04-30T02:32:24.200Z,65.20
2019-04-30T02:35:10.315Z,66.40
2019-04-30T02:37:46.256Z,65.00
2019-04-30T02:40:14.889Z,65.40
2019-04-30T02:42:43.727Z,65.10
2019-04-30T02:45:13.114Z,64.90
2019-04-30T02:47:42.136Z,66.20
2019-04-30T02:50:17.628Z,65.40
2019-04-30T02:52:42.638Z,66.30
2019-04-30T02:55:14.423Z,66.00
2019-04-30T02:57:45.889Z,65.80
2019-04-30T03:00:16.183Z,66.10
2019-04-30T03:02:44.698Z,65.70
2019-04-30T03:05:14.089Z,65.00
2019-04-30T03:07:42.659Z,65.60
2019-04-30T03:10:22.476Z,65.10
2019-04-30T03:12:50.948Z,65.30
2019-04-30T03:15:22.873Z,65.60
2019-04-30T03:17:51.516Z,66.40
2019-04-30T03:20:36.284Z,65.10
2019-04-30T03:23:03.979Z,65.50
2019-04-30T03:25:32.537Z,65.20
2019-04-30T03:28:01.463Z,65.00
2019-04-30T03:30:31.817Z,65.50
2019-04-30T03:33:02.791Z,65.50
2019-04-30T03:35:32.838Z,65.40
2019-04-30T03:38:01.487Z,65.50
2019-04-30T03:40:33.537Z,66.20
2019-04-30T03:43:04.077Z,66.40
2019-04-30T03:45:34.555Z,65.60
2019-04-30T03:48:03.276Z,66.50
2019-04-30T03:50:48.688Z,66.40
2019-04-30T03:53:44.423Z,65.90
2019-04-30T03:56:13.147Z,66.40
2019-04-30T03:58:50.207Z,65.60
2019-04-30T04:01:20.658Z,65.40
2019-04-30T04:04:05.421Z,65.50
2019-04-30T04:07:01.575Z,66.10
2019-04-30T04:09:40.435Z,65.50
2019-04-30T04:12:20.380Z,65.40
2019-04-30T04:14:50.995Z,66.10
2019-04-30T04:17:21.882Z,66.80
2019-04-30T04:19:54.355Z,67.80
2019-04-30T04:22:22.730Z,66.50
2019-04-30T04:24:52.515Z,66.30
2019-04-30T04:27:21.111Z,66.00
2019-04-30T04:29:51.463Z,66.60
2019-04-30T04:32:24.479Z,66.10
2019-04-30T04:34:53.396Z,65.80
2019-04-30T04:37:22.163Z,66.20
2019-04-30T04:39:59.525Z,66.30
2019-04-30T04:42:32.382Z,66.00
2019-04-30T04:45:01.163Z,68.00
2019-04-30T04:47:30.891Z,67.30
2019-04-30T04:50:01.605Z,66.60
2019-04-30T04:52:34.618Z,66.80
2019-04-30T04:55:09.991Z,66.50
2019-04-30T04:57:53.931Z,66.00
2019-04-30T05:00:19.454Z,66.50
2019-04-30T05:03:03.207Z,66.20
2019-04-30T05:05:40.641Z,66.30
2019-04-30T05:08:09.678Z,66.30
2019-04-30T05:10:56.087Z,67.00
2019-04-30T05:13:24.780Z,67.50
2019-04-30T05:16:07.429Z,68.80
2019-04-30T05:18:43.552Z,67.60
2019-04-30T05:22:00.940Z,66.50
2019-04-30T05:23:44.575Z,67.60
2019-04-30T05:26:22.761Z,68.60
2019-04-30T05:28:52.905Z,66.70
2019-04-30T05:31:21.261Z,68.00
2019-04-30T05:33:51.289Z,68.20
2019-04-30T05:36:19.883Z,67.20
2019-04-30T05:38:49.272Z,67.30
2019-04-30T05:41:21.141Z,66.80
2019-04-30T05:43:52.537Z,67.20
2019-04-30T05:46:22.746Z,66.60
2019-04-30T05:48:51.492Z,67.60
2019-04-30T05:51:21.580Z,68.00
2019-04-30T05:53:53.387Z,66.90
2019-04-30T05:56:22.019Z,66.60
2019-04-30T05:58:50.809Z,66.70
2019-04-30T06:01:21.044Z,66.50
2019-04-30T06:03:49.672Z,70.00
2019-04-30T06:06:19.283Z,69.20
2019-04-30T06:12:09.448Z,68.50
2019-04-30T06:14:56.690Z,69.30
2019-04-30T06:20:33.906Z,68.20
2019-04-30T06:23:09.458Z,67.70
2019-04-30T06:25:55.631Z,67.60
2019-04-30T06:28:19.615Z,69.10
2019-04-30T06:31:13.546Z,70.20
2019-04-30T06:38:58.879Z,67.80
2019-04-30T06:41:29.709Z,69.40
2019-04-30T06:44:01.483Z,68.60
2019-04-30T06:46:29.400Z,68.00
2019-04-30T06:49:00.733Z,70.10
2019-04-30T06:51:31.975Z,68.30
2019-04-30T06:54:00.511Z,68.30
2019-04-30T06:56:29.068Z,67.50
2019-04-30T06:58:59.231Z,67.40
2019-04-30T07:01:29.089Z,68.30
2019-04-30T07:04:00.749Z,70.10
2019-04-30T07:06:31.918Z,69.70
2019-04-30T07:09:00.254Z,68.30
2019-04-30T07:11:30.545Z,68.10
2019-04-30T07:13:59.984Z,68.10
2019-04-30T07:16:29.835Z,68.60
2019-04-30T07:18:58.700Z,69.60
2019-04-30T07:21:31.285Z,69.80
2019-04-30T07:23:59.574Z,67.90
2019-04-30T07:26:28.899Z,67.70
2019-04-30T07:29:01.933Z,68.30
2019-04-30T07:31:29.660Z,68.60
2019-04-30T07:33:59.479Z,70.90
2019-04-30T07:36:43.411Z,68.20
2019-04-30T07:38:59.979Z,68.90
2019-04-30T07:41:30.859Z,67.50
2019-04-30T07:43:59.414Z,67.60
2019-04-30T07:46:29.993Z,68.60
2019-04-30T07:48:59.931Z,69.40
2019-04-30T07:51:31.964Z,68.90
2019-04-30T07:54:04.988Z,71.10
2019-04-30T07:56:38.095Z,68.80
2019-04-30T07:59:04.191Z,68.60
2019-04-30T08:01:32.810Z,68.70
2019-04-30T08:04:02.972Z,69.30
2019-04-30T08:06:31.744Z,70.80
2019-04-30T08:09:01.117Z,69.30
2019-04-30T08:11:34.491Z,68.90
2019-04-30T08:14:00.786Z,68.00
2019-04-30T08:16:29.316Z,67.60
2019-04-30T08:19:01.335Z,67.80
2019-04-30T08:21:29.971Z,68.40
2019-04-30T08:24:04.309Z,68.10
2019-04-30T08:26:32.869Z,68.20
2019-04-30T08:29:01.498Z,68.10
2019-04-30T08:31:30.105Z,68.10
2019-04-30T08:33:59.146Z,68.30
2019-04-30T08:36:29.637Z,68.50
2019-04-30T08:38:59.669Z,68.90
2019-04-30T08:41:29.263Z,71.40
2019-04-30T08:43:59.708Z,68.30
2019-04-30T08:46:28.710Z,67.50
2019-04-30T08:48:58.710Z,67.50
2019-04-30T08:51:30.534Z,67.20
2019-04-30T08:53:58.678Z,67.00
2019-04-30T08:56:29.142Z,66.90
2019-04-30T08:58:59.266Z,68.20
2019-04-30T09:01:29.434Z,70.80
2019-04-30T09:03:59.650Z,67.50
2019-04-30T09:06:29.690Z,68.70
2019-04-30T09:08:59.362Z,68.80
2019-04-30T09:11:33.860Z,67.40
2019-04-30T09:13:58.587Z,67.50
2019-04-30T09:16:27.070Z,66.90
2019-04-30T09:18:59.372Z,66.60
2019-04-30T09:21:29.832Z,66.60
2019-04-30T09:23:59.446Z,67.40
2019-04-30T09:26:29.037Z,66.70
2019-04-30T09:28:59.390Z,66.60
2019-04-30T09:31:29.620Z,67.70
2019-04-30T09:34:00.833Z,66.90
2019-04-30T09:36:29.210Z,67.50
2019-04-30T09:39:00.998Z,67.20
2019-04-30T09:41:28.786Z,67.60
2019-04-30T09:43:59.618Z,67.30
2019-04-30T09:46:29.810Z,67.50
2019-04-30T09:48:59.733Z,66.80
2019-04-30T09:51:30.437Z,66.70
2019-04-30T09:54:02.191Z,66.80
2019-04-30T09:56:29.465Z,67.40
2019-04-30T09:58:59.250Z,67.00
2019-04-30T10:01:28.069Z,68.00
2019-04-30T10:03:57.006Z,67.50
2019-04-30T10:06:37.102Z,68.70
2019-04-30T10:08:56.238Z,69.20
2019-04-30T10:11:35.083Z,68.80
2019-04-30T10:14:03.668Z,67.40
2019-04-30T10:16:36.527Z,67.30
2019-04-30T10:19:05.129Z,66.80
2019-04-30T10:21:33.614Z,66.90
2019-04-30T10:24:12.570Z,68.60
2019-04-30T10:26:34.233Z,68.10
2019-04-30T10:29:32.200Z,67.20
2019-04-30T10:32:01.181Z,68.70
2019-04-30T10:34:29.703Z,67.10
2019-04-30T10:36:59.594Z,68.30
2019-04-30T10:39:29.741Z,67.90
2019-04-30T10:41:58.344Z,67.30
2019-04-30T10:44:26.851Z,66.70
2019-04-30T10:46:55.329Z,69.60
2019-04-30T10:49:23.856Z,67.30
2019-04-30T10:51:52.491Z,67.00
2019-04-30T10:54:26.028Z,67.20
2019-04-30T10:56:51.511Z,68.40
2019-04-30T10:59:20.454Z,68.50
2019-04-30T11:01:49.345Z,68.30
2019-04-30T11:04:19.603Z,67.50
2019-04-30T11:06:48.385Z,68.00
2019-04-30T11:09:20.032Z,68.30
2019-04-30T11:11:53.050Z,69.10
2019-04-30T11:14:21.561Z,68.00
2019-04-30T11:16:51.774Z,70.30
2019-04-30T11:19:23.765Z,66.80
2019-04-30T11:21:52.375Z,69.00
2019-04-30T11:24:22.870Z,68.10
2019-04-30T11:26:52.487Z,67.30
2019-04-30T11:29:23.015Z,66.80
2019-04-30T11:32:11.731Z,66.80
2019-04-30T11:34:33.093Z,66.30
2019-04-30T11:37:01.744Z,67.30
2019-04-30T11:39:35.638Z,69.20
2019-04-30T11:44:58.679Z,67.70
2019-04-30T11:47:53.538Z,69.10
2019-04-30T11:50:24.615Z,70.10
2019-04-30T11:53:09.630Z,68.10
2019-04-30T11:55:40.315Z,69.10
2019-04-30T11:58:30.353Z,68.00
2019-04-30T12:00:56.870Z,69.70
2019-04-30T12:03:28.652Z,66.70
2019-04-30T12:05:58.900Z,67.20
2019-04-30T12:08:40.005Z,70.10
2019-04-30T12:11:24.779Z,66.80
2019-04-30T12:16:51.494Z,66.20
2019-04-30T12:19:28.621Z,66.90
2019-04-30T12:22:29.558Z,65.90
2019-04-30T12:24:44.883Z,66.90
2019-04-30T12:27:22.226Z,66.00
2019-04-30T12:29:51.311Z,65.80
2019-04-30T12:32:23.322Z,66.30
2019-04-30T12:34:54.785Z,65.50
2019-04-30T12:37:24.267Z,65.20
2019-04-30T12:39:59.391Z,65.90
2019-04-30T12:42:41.817Z,65.50
2019-04-30T12:46:50.688Z,65.30
2019-04-30T12:47:46.172Z,65.00
2019-04-30T12:50:23.532Z,64.80
2019-04-30T12:52:59.366Z,64.40
2019-04-30T12:55:48.912Z,64.40
2019-04-30T12:58:21.084Z,64.40
2019-04-30T13:00:53.497Z,64.50
2019-04-30T13:03:24.775Z,64.50
2019-04-30T13:05:56.516Z,64.20
2019-04-30T13:08:25.871Z,64.00
2019-04-30T13:10:55.205Z,64.00
2019-04-30T13:13:25.135Z,63.90
2019-04-30T13:15:54.046Z,63.90
2019-04-30T13:18:23.472Z,63.50
2019-04-30T13:21:01.196Z,63.20
2019-04-30T13:26:09.486Z,63.20
2019-04-30T13:32:02.388Z,62.90
2019-04-30T13:34:45.295Z,61.80
2019-04-30T13:37:19.184Z,62.40
2019-04-30T13:39:53.152Z,62.40
2019-04-30T13:42:41.671Z,60.80
2019-04-30T13:45:21.882Z,62.00
2019-04-30T13:48:05.896Z,61.80
2019-04-30T13:53:49.805Z,61.30
2019-04-30T13:56:35.571Z,61.70
2019-04-30T13:59:14.248Z,61.70
2019-04-30T14:04:33.846Z,60.80
2019-04-30T14:07:20.817Z,61.50
2019-04-30T14:10:10.194Z,61.60
2019-04-30T14:16:13.627Z,60.70
2019-04-30T14:18:34.105Z,60.70
2019-04-30T14:21:34.512Z,60.80
2019-04-30T14:24:16.540Z,60.60
2019-04-30T14:26:45.466Z,59.60
2019-04-30T14:29:16.132Z,60.80
2019-04-30T14:31:45.227Z,61.10
2019-04-30T14:34:14.056Z,60.70
2019-04-30T14:36:46.711Z,60.80
2019-04-30T14:39:17.112Z,59.00
2019-04-30T14:41:54.265Z,60.30
2019-04-30T14:44:42.729Z,59.60
2019-04-30T14:47:30.766Z,58.30
2019-04-30T14:50:10.089Z,59.90
2019-04-30T14:52:47.398Z,58.70
2019-04-30T14:55:35.956Z,58.80
2019-04-30T14:58:15.145Z,59.60
2019-04-30T15:01:09.427Z,60.00
2019-04-30T15:03:39.537Z,60.30
2019-04-30T15:06:08.739Z,58.80
2019-04-30T15:08:39.427Z,60.20
2019-04-30T15:11:10.940Z,59.40
2019-04-30T15:13:41.373Z,60.30
2019-04-30T15:16:10.168Z,59.10
2019-04-30T15:18:39.007Z,59.50
2019-04-30T15:21:09.438Z,59.90
2019-04-30T15:23:58.399Z,58.40
2019-04-30T15:26:25.280Z,59.90
2019-04-30T15:28:53.985Z,60.00
2019-04-30T15:31:25.306Z,59.40
2019-04-30T15:34:10.753Z,58.80
2019-04-30T15:36:40.395Z,59.60
2019-04-30T15:39:11.774Z,58.70
2019-04-30T15:41:40.358Z,58.80
2019-04-30T15:44:10.494Z,59.20
2019-04-30T15:46:47.029Z,59.20
2019-04-30T15:49:15.710Z,58.60
2019-04-30T15:51:47.354Z,59.10
2019-04-30T15:54:22.412Z,59.00
2019-04-30T15:56:46.655Z,59.00
2019-04-30T15:59:23.081Z,58.70
2019-04-30T16:01:56.085Z,57.50
2019-04-30T16:04:30.793Z,59.20
2019-04-30T16:07:01.300Z,59.30
2019-04-30T16:09:50.481Z,58.80
2019-04-30T16:12:33.774Z,59.20
2019-04-30T16:15:10.036Z,59.20
2019-04-30T16:18:02.025Z,59.20
2019-04-30T16:20:30.686Z,58.70
2019-04-30T16:25:51.812Z,59.20
2019-04-30T16:28:24.193Z,56.60
2019-04-30T16:31:03.454Z,57.10
2019-04-30T16:33:45.217Z,57.60
2019-04-30T16:36:19.207Z,58.50
2019-04-30T16:38:46.505Z,57.40
2019-04-30T16:41:15.217Z,57.50
2019-04-30T16:43:44.189Z,58.10
2019-04-30T16:46:24.505Z,55.60
2019-04-30T16:48:53.154Z,55.90
2019-04-30T16:51:21.644Z,56.00
2019-04-30T16:53:50.286Z,56.20
2019-04-30T16:56:18.890Z,57.10
2019-04-30T16:59:01.860Z,57.20
2019-04-30T17:01:36.369Z,57.50
2019-04-30T17:04:21.641Z,57.70
2019-04-30T17:07:08.845Z,57.60
2019-04-30T17:09:50.979Z,57.60
2019-04-30T17:12:41.833Z,58.50
2019-04-30T17:18:05.873Z,58.40
2019-04-30T17:20:34.443Z,58.80
2019-04-30T17:23:09.406Z,58.70
2019-04-30T17:25:42.933Z,58.80
2019-04-30T17:28:18.971Z,58.90
2019-04-30T17:30:55.392Z,59.00
2019-04-30T17:33:25.891Z,58.90
2019-04-30T17:35:54.729Z,58.90
2019-04-30T17:38:49.122Z,59.00
2019-04-30T17:41:20.711Z,59.10
2019-04-30T17:44:09.999Z,59.00
2019-04-30T17:46:40.399Z,59.20
2019-04-30T17:49:10.144Z,59.20
2019-04-30T17:51:54.110Z,59.20
2019-04-30T17:54:16.518Z,59.20
2019-04-30T17:56:47.169Z,59.20
2019-04-30T17:59:32.476Z,59.30
2019-04-30T18:02:09.550Z,59.20
2019-04-30T18:04:41.436Z,58.90
2019-04-30T18:07:12.517Z,58.90
2019-04-30T18:09:41.366Z,59.10
2019-04-30T18:12:11.934Z,59.30
2019-04-30T18:14:40.449Z,59.30
2019-04-30T18:17:09.372Z,59.30
2019-04-30T18:19:55.704Z,59.30
2019-04-30T18:22:31.489Z,59.40
2019-04-30T18:25:18.230Z,59.40
2019-04-30T18:27:59.346Z,59.50
2019-04-30T18:30:31.879Z,59.50
2019-04-30T18:33:00.523Z,59.50
2019-04-30T18:35:40.058Z,59.80
2019-04-30T18:38:04.440Z,59.60
2019-04-30T18:40:40.080Z,59.60
2019-04-30T18:43:28.803Z,60.10
2019-04-30T18:58:58.732Z,59.90
2019-04-30T19:01:58.630Z,59.80
2019-04-30T19:04:45.282Z,59.90
2019-04-30T19:07:19.871Z,60.00
2019-04-30T19:09:59.370Z,60.00
2019-04-30T19:12:44.673Z,60.00
2019-04-30T19:15:48.729Z,60.00
2019-04-30T19:18:04.671Z,60.10
2019-04-30T19:20:49.161Z,60.20
2019-04-30T19:23:39.683Z,60.20
2019-04-30T19:26:09.665Z,60.40
2019-04-30T19:28:38.720Z,60.40
2019-04-30T19:31:12.299Z,60.50
2019-04-30T19:33:41.047Z,60.60
2019-04-30T19:36:20.298Z,60.60
2019-04-30T19:38:45.274Z,60.70
2019-04-30T19:41:20.234Z,60.70
2019-04-30T19:43:50.536Z,60.80
2019-04-30T19:46:19.307Z,60.90
2019-04-30T19:48:50.416Z,60.90
2019-04-30T19:51:19.853Z,60.80
2019-04-30T19:54:19.887Z,60.90
2019-04-30T19:56:42.209Z,60.90
2019-04-30T19:59:19.370Z,60.90
2019-04-30T20:01:49.414Z,61.00
2019-04-30T20:04:32.440Z,61.00
2019-04-30T20:06:53.800Z,61.00
2019-04-30T20:09:23.907Z,61.00
2019-04-30T20:11:56.766Z,61.10
2019-04-30T20:14:34.373Z,61.10
2019-04-30T20:19:53.482Z,61.20
2019-04-30T20:22:29.191Z,61.20
2019-04-30T20:25:01.181Z,61.20
2019-04-30T20:27:31.987Z,61.20
2019-04-30T20:39:05.896Z,61.20
2019-04-30T20:41:54.635Z,61.20
2019-04-30T20:47:37.074Z,61.10
2019-04-30T20:50:14.715Z,61.20
2019-04-30T20:55:40.813Z,61.20
2019-04-30T20:58:13.653Z,61.20
2019-04-30T21:00:42.993Z,61.20
2019-04-30T21:03:13.707Z,61.20
2019-04-30T21:05:43.771Z,61.10
2019-04-30T21:08:24.971Z,61.20
2019-04-30T21:14:04.178Z,61.20
2019-04-30T21:16:34.406Z,61.10
2019-04-30T21:19:12.288Z,61.10
2019-04-30T21:21:39.555Z,61.20
2019-04-30T21:24:15.664Z,61.20
2019-04-30T21:26:52.029Z,61.10
2019-04-30T21:29:31.065Z,61.10
2019-04-30T21:32:13.112Z,61.10
2019-04-30T21:34:53.574Z,61.00
2019-04-30T21:40:22.721Z,61.00
2019-04-30T21:42:58.410Z,60.90
2019-04-30T21:45:35.233Z,60.90
2019-04-30T21:48:12.265Z,60.90
2019-04-30T21:51:06.743Z,60.90
2019-04-30T21:53:39.375Z,60.90
2019-04-30T21:56:08.547Z,60.90
2019-04-30T21:58:42.199Z,60.80
2019-04-30T22:01:25.765Z,60.70
2019-04-30T22:03:56.836Z,61.50
2019-04-30T22:06:29.618Z,60.80
2019-04-30T22:09:24.239Z,60.80
2019-04-30T22:12:01.132Z,60.80
2019-04-30T22:14:47.509Z,60.90
2019-04-30T22:17:36.135Z,60.90
2019-04-30T22:20:10.167Z,60.90
2019-04-30T22:22:54.323Z,61.00
2019-04-30T22:25:23.858Z,60.90
2019-04-30T22:27:57.092Z,61.00
2019-04-30T22:30:26.537Z,60.80
2019-04-30T22:32:55.577Z,60.90
2019-04-30T22:35:32.988Z,60.90
2019-04-30T22:38:10.201Z,60.90
2019-04-30T22:40:43.586Z,60.80
2019-04-30T22:43:20.374Z,60.80
2019-04-30T22:45:56.436Z,60.90
2019-04-30T22:48:30.734Z,61.50
2019-04-30T22:51:11.065Z,60.90
2019-04-30T22:53:40.211Z,60.90
2019-04-30T22:56:12.390Z,60.90
2019-04-30T22:58:53.646Z,61.00
2019-04-30T23:01:42.660Z,61.00
2019-04-30T23:04:16.141Z,60.90
2019-04-30T23:06:45.802Z,61.00
2019-04-30T23:09:17.902Z,60.90
2019-04-30T23:11:51.589Z,61.00
2019-04-30T23:14:25.534Z,60.90
2019-04-30T23:17:01.704Z,60.90
2019-04-30T23:19:34.137Z,60.90
2019-04-30T23:25:20.421Z,60.90
2019-04-30T23:27:54.127Z,61.00
2019-04-30T23:30:24.875Z,60.90
2019-04-30T23:32:57.492Z,61.00
2019-04-30T23:35:32.807Z,60.90
2019-04-30T23:38:03.318Z,61.00
2019-04-30T23:40:51.720Z,60.80
2019-04-30T23:43:33.114Z,61.70
2019-04-30T23:46:02.546Z,60.90
2019-04-30T23:48:31.550Z,60.90
2019-04-30T23:51:04.682Z,60.90
2019-04-30T23:53:33.712Z,61.00
2019-04-30T23:56:05.817Z,60.90
2019-04-30T23:58:35.354Z,60.90
